Time;durP1;ratioP1;P1;durP2;ratioP2;P2;SDS_P1;SDS_P2;PMS_P1;PMS_P2;Temp;Humidity;BMP_temperature;BMP_pressure;BME280_temperature;BME280_humidity;BME280_pressure;Samples;Min_cycle;Max_cycle;Signal;HPM_P1;HPM_P2
2022/05/30 00:00:48;;;;;;;9.15;6.65;;;8.60;80.80;;;6.99;89.17;95462.00;5031073;28;20432;-68
2022/05/30 00:03:14;;;;;;;8.88;7.43;;;8.60;81.10;;;6.98;88.81;95447.31;5016224;28;20042;-69
2022/05/30 00:05:46;;;;;;;8.50;7.60;;;8.60;81.20;;;6.95;89.36;95450.31;5002288;28;20115;-69
2022/05/30 00:08:15;;;;;;;9.98;7.90;;;8.50;81.10;;;6.92;88.99;95448.88;4997813;28;20041;-69
2022/05/30 00:10:41;;;;;;;9.00;7.80;;;8.50;81.20;;;6.89;88.90;95448.44;4994754;28;20116;-69
2022/05/30 00:13:07;;;;;;;7.75;6.43;;;8.40;81.20;;;6.88;88.80;95449.41;4984299;28;20044;-69
2022/05/30 00:15:33;;;;;;;9.10;7.03;;;8.40;80.80;;;6.85;88.88;95450.59;5005420;28;20105;-68
2022/05/30 00:18:00;;;;;;;6.25;5.65;;;8.40;80.70;;;6.81;88.73;95443.31;4998299;28;20037;-67
2022/05/30 00:20:26;;;;;;;5.82;5.07;;;8.40;80.60;;;6.76;88.62;95447.25;5009211;28;20061;-67
2022/05/30 00:22:52;;;;;;;5.55;4.47;;;8.40;80.40;;;6.74;88.26;95449.22;5010526;28;20038;-67
2022/05/30 00:25:18;;;;;;;4.80;4.30;;;8.30;80.40;;;6.72;88.02;95447.78;5020640;28;20036;-67
2022/05/30 00:27:46;;;;;;;6.95;4.60;;;8.20;80.30;;;6.66;88.39;95441.50;5000314;28;20064;-67
2022/05/30 00:30:13;;;;;;;6.43;5.72;;;8.20;80.70;;;6.62;88.24;95435.00;4996793;28;20038;-67
2022/05/30 00:32:39;;;;;;;8.82;7.80;;;8.10;80.70;;;6.60;88.39;95442.22;4983066;28;20033;-67
2022/05/30 00:35:05;;;;;;;9.52;7.95;;;8.20;80.90;;;6.60;88.24;95444.84;5003945;28;20099;-68
2022/05/30 00:37:32;;;;;;;9.73;8.73;;;8.10;80.90;;;6.58;87.96;95443.41;4993730;28;20034;-67
2022/05/30 00:39:58;;;;;;;8.57;7.68;;;8.10;81.00;;;6.53;88.48;95436.06;4982363;28;20041;-68
2022/05/30 00:42:25;;;;;;;8.95;7.63;;;8.10;81.20;;;6.50;88.73;95435.63;4989561;28;20084;-68
2022/05/30 00:44:51;;;;;;;8.60;7.70;;;8.10;81.00;;;6.50;88.65;95441.66;4998802;28;20030;-68
2022/05/30 00:47:18;;;;;;;10.15;7.70;;;8.10;81.10;;;6.48;88.62;95438.44;4999216;28;20525;-68
2022/05/30 00:49:45;;;;;;;9.68;8.23;;;8.00;80.80;;;6.44;88.72;95435.38;4981973;28;20060;-68
2022/05/30 00:52:22;;;;;;;10.18;8.05;;;8.00;81.10;;;6.41;89.62;95432.31;5012997;28;20042;-68
2022/05/30 00:55:20;;;;;;;7.88;7.07;;;7.90;81.20;;;6.39;89.42;95436.91;4978046;28;20041;-68
2022/05/30 00:57:47;;;;;;;8.20;7.40;;;7.90;81.10;;;6.33;88.74;95419.31;5000371;28;20053;-68
2022/05/30 01:00:21;;;;;;;10.15;9.15;;;7.90;81.00;;;6.31;89.22;95422.09;5013098;28;20037;-68
2022/05/30 01:08:16;;;;;;;7.18;6.47;;;7.80;81.20;;;6.23;88.51;95416.16;4973951;28;20099;-68
2022/05/30 01:10:41;;;;;;;8.48;7.63;;;7.80;81.10;;;6.23;89.37;95416.16;5009221;28;20128;-68
2022/05/30 01:13:09;;;;;;;8.40;7.60;;;7.80;81.50;;;6.24;89.40;95409.94;4985290;28;20038;-68
2022/05/30 01:15:36;;;;;;;8.02;7.22;;;7.80;81.40;;;6.22;88.74;95409.31;4991863;28;20248;-68
2022/05/30 01:18:23;;;;;;;7.95;7.15;;;7.80;81.00;;;6.21;89.47;95410.31;5005102;28;20100;-67
2022/05/30 01:21:00;;;;;;;8.32;7.53;;;7.70;80.50;;;6.18;89.10;95408.06;5004742;28;20418;-67
2022/05/30 01:23:50;;;;;;;8.23;7.43;;;7.80;80.70;;;6.14;89.01;95400.59;5013992;28;20068;-67
2022/05/30 01:26:42;;;;;;;8.55;7.65;;;7.70;80.70;;;6.10;88.64;95404.53;5021630;28;20044;-67
2022/05/30 01:29:44;;;;;;;9.70;8.40;;;7.70;80.70;;;6.05;89.78;95400.81;5014072;28;20057;-68
2022/05/30 01:32:09;;;;;;;8.93;7.78;;;7.60;80.70;;;6.01;87.87;95405.59;4999056;28;20434;-67
2022/05/30 01:34:35;;;;;;;10.05;8.18;;;7.60;81.00;;;5.97;89.03;95399.13;4999283;28;20067;-68
2022/05/30 01:37:01;;;;;;;9.73;8.73;;;7.60;81.40;;;5.96;89.75;95394.06;5000648;28;20551;-68
2022/05/30 01:39:28;;;;;;;11.73;9.50;;;7.60;81.70;;;5.95;89.73;95390.66;4994784;28;20133;-68
2022/05/30 01:41:54;;;;;;;10.52;9.43;;;7.60;82.10;;;5.97;90.45;95387.88;4983538;28;20042;-68
2022/05/30 01:44:21;;;;;;;12.40;9.77;;;7.60;82.40;;;5.97;90.99;95380.03;5019205;28;20088;-68
2022/05/30 01:46:47;;;;;;;9.38;8.40;;;7.60;82.60;;;6.00;90.23;95390.13;4980736;28;20030;-68
2022/05/30 01:49:15;;;;;;;9.10;8.15;;;7.60;82.50;;;6.03;90.61;95392.38;4978012;28;20117;-68
2022/05/30 01:51:41;;;;;;;9.10;8.20;;;7.60;82.40;;;6.03;90.09;95384.53;4993742;28;20026;-68
2022/05/30 01:54:07;;;;;;;8.88;7.97;;;7.60;82.30;;;6.02;90.47;95390.75;4986258;28;20128;-68
2022/05/30 01:56:35;;;;;;;13.48;8.38;;;7.60;82.30;;;6.01;90.74;95384.72;4991776;28;20144;-67
2022/05/30 01:59:01;;;;;;;9.90;8.90;;;7.60;82.30;;;6.01;90.22;95389.13;5000486;28;20045;-67
2022/05/30 02:01:28;;;;;;;11.00;9.73;;;7.60;82.70;;;6.00;91.12;95383.09;4985227;28;20132;-67
2022/05/30 02:03:54;;;;;;;49.28;8.85;;;7.60;82.50;;;5.99;91.37;95384.09;5007607;28;20038;-67
2022/05/30 02:06:21;;;;;;;10.57;8.20;;;7.60;82.30;;;5.98;90.36;95394.72;4998117;28;20034;-67
2022/05/30 02:08:48;;;;;;;17.15;7.88;;;7.60;82.30;;;5.97;90.82;95380.84;5021215;28;20040;-67
2022/05/30 02:11:16;;;;;;;9.00;7.60;;;7.60;82.10;;;5.95;90.78;95390.66;5006494;28;20570;-67
2022/05/30 02:13:42;;;;;;;8.40;6.85;;;7.60;82.10;;;5.93;90.01;95392.63;4991711;28;20060;-67
2022/05/30 02:18:56;;;;;;;7.55;6.75;;;7.60;81.90;;;5.91;89.85;95371.13;5012647;28;20509;-67
2022/05/30 02:21:22;;;;;;;67.28;44.15;;;7.60;81.70;;;5.92;90.28;95367.53;4997748;28;20038;-67
2022/05/30 02:23:48;;;;;;;26.08;19.25;;;7.60;82.70;;;5.91;91.14;95368.50;5000021;28;20068;-68
2022/05/30 02:26:13;;;;;;;21.52;16.20;;;7.60;82.00;;;5.91;91.28;95362.47;4997172;28;21823;-67
2022/05/30 02:28:41;;;;;;;7.57;6.78;;;7.50;82.00;;;5.88;90.84;95357.56;4989055;28;20048;-68
2022/05/30 02:31:07;;;;;;;14.80;6.60;;;7.50;81.60;;;5.84;89.68;95352.69;5032239;28;20033;-69
2022/05/30 02:39:02;;;;;;;21.98;9.60;;;7.40;81.60;;;5.77;89.39;95364.03;5002071;28;20037;-68
2022/05/30 02:41:28;;;;;;;8.95;7.25;;;7.40;81.10;;;5.73;89.38;95370.59;4987222;28;20037;-68
2022/05/30 02:43:54;;;;;;;21.27;7.03;;;7.30;81.10;;;5.70;88.90;95369.16;5010712;28;20096;-68
2022/05/30 02:46:20;;;;;;;8.70;7.80;;;7.30;81.00;;;5.67;88.82;95381.75;5018420;28;20150;-65
2022/05/30 02:48:46;;;;;;;13.48;8.40;;;7.20;81.40;;;5.62;89.74;95379.66;5029491;28;20093;-68
2022/05/30 02:51:13;;;;;;;8.27;7.47;;;7.10;81.30;;;5.58;90.00;95380.19;4996936;28;20049;-69
2022/05/30 02:53:39;;;;;;;8.20;7.40;;;7.10;81.30;;;5.57;89.41;95373.34;5010968;28;20463;-67
2022/05/30 02:56:06;;;;;;;17.45;13.38;;;7.20;81.40;;;5.58;90.33;95377.56;4972982;28;20038;-69
2022/05/30 02:58:32;;;;;;;21.75;11.77;;;7.20;81.80;;;5.57;90.47;95381.97;5001171;28;20570;-69
2022/05/30 03:00:58;;;;;;;13.27;10.50;;;7.30;82.00;;;5.54;91.07;95383.13;5001010;28;20034;-69
2022/05/30 03:03:25;;;;;;;15.65;8.15;;;7.20;82.10;;;5.56;91.17;95384.75;5010562;28;20025;-69
2022/05/30 03:05:51;;;;;;;16.23;7.97;;;7.20;82.20;;;5.56;90.76;95382.16;5003712;28;20557;-69
2022/05/30 03:08:17;;;;;;;6.38;5.68;;;7.10;81.80;;;5.54;90.88;95388.34;5009474;28;20030;-69
2022/05/30 03:10:43;;;;;;;11.30;9.32;;;7.10;81.60;;;5.53;90.47;95386.75;5011112;28;20061;-69
2022/05/30 03:13:09;;;;;;;18.05;8.40;;;7.20;81.60;;;5.51;90.73;95388.72;4994189;28;20411;-68
2022/05/30 03:15:35;;;;;;;44.17;7.95;;;7.20;81.50;;;5.48;90.59;95394.28;5018400;28;20026;-69
2022/05/30 03:18:02;;;;;;;26.13;9.98;;;7.10;81.00;;;5.45;89.51;95384.19;5002254;28;20116;-66
2022/05/30 03:20:28;;;;;;;11.43;6.05;;;7.10;81.30;;;5.43;89.45;95390.56;5008069;28;20034;-71
2022/05/30 03:22:53;;;;;;;6.13;5.07;;;7.10;81.20;;;5.41;89.97;95388.13;5002720;28;20569;-68
2022/05/30 03:25:22;;;;;;;6.35;5.45;;;7.10;81.30;;;5.42;90.80;95389.75;4975771;28;20070;-72
2022/05/30 03:27:48;;;;;;;12.38;7.32;;;7.20;81.40;;;5.42;90.54;95389.75;5009356;28;20052;-68
2022/05/30 03:30:14;;;;;;;13.98;11.75;;;7.10;80.80;;;5.43;89.26;95391.41;5001625;28;20124;-69
2022/05/30 03:32:41;;;;;;;11.43;7.40;;;7.20;80.60;;;5.43;90.23;95401.81;5000544;28;20041;-68
2022/05/30 03:35:09;;;;;;;7.90;5.30;;;7.20;80.40;;;5.42;89.73;95394.16;5000784;28;20104;-73
2022/05/30 03:37:37;;;;;;;5.28;4.78;;;7.10;80.40;;;5.42;89.29;95394.16;5032242;28;20029;-67
2022/05/30 03:40:05;;;;;;;5.20;4.70;;;7.10;80.10;;;5.40;89.36;95396.94;5012181;28;20483;-70
2022/05/30 03:42:30;;;;;;;5.80;5.30;;;7.10;80.20;;;5.40;89.79;95396.94;4993447;28;20033;-68
2022/05/30 03:44:57;;;;;;;5.30;4.80;;;7.10;80.40;;;5.42;88.95;95394.97;4992661;28;20099;-67
2022/05/30 03:47:22;;;;;;;5.82;5.22;;;7.20;80.30;;;5.44;88.73;95403.44;5020094;28;20041;-69
2022/05/30 03:49:48;;;;;;;6.50;4.95;;;7.30;80.20;;;5.45;89.51;95405.06;5023536;28;20447;-68
2022/05/30 03:52:14;;;;;;;7.78;5.15;;;7.30;80.20;;;5.48;89.37;95404.72;5003170;28;20148;-68
2022/05/30 03:54:40;;;;;;;7.13;5.00;;;7.20;80.10;;;5.48;89.54;95409.94;4986982;28;20511;-69
2022/05/30 03:57:06;;;;;;;9.40;5.47;;;7.30;80.10;;;5.53;89.51;95410.22;4972956;28;20049;-68
2022/05/30 03:59:32;;;;;;;8.27;5.60;;;7.30;80.10;;;5.53;88.88;95415.44;4992476;28;20125;-68
2022/05/30 04:01:58;;;;;;;9.30;5.55;;;7.40;80.10;;;5.57;88.93;95409.84;4994530;28;20053;-69
2022/05/30 04:04:24;;;;;;;6.00;5.40;;;7.40;80.10;;;5.60;90.05;95409.50;5012336;28;20124;-68
2022/05/30 04:06:50;;;;;;;8.43;5.80;;;7.50;80.20;;;5.62;89.73;95410.94;5012906;28;20140;-67
2022/05/30 04:09:16;;;;;;;6.00;5.40;;;7.50;80.00;;;5.65;89.72;95410.59;4992556;28;20034;-68
2022/05/30 04:11:43;;;;;;;5.68;5.10;;;7.60;80.00;;;5.68;89.54;95409.47;5009271;28;20625;-70
2022/05/30 04:14:08;;;;;;;6.38;5.72;;;7.60;80.10;;;5.73;90.45;95407.94;4993681;28;20069;-68
2022/05/30 04:16:34;;;;;;;5.78;5.28;;;7.70;80.10;;;5.81;89.72;95410.47;5005931;28;20137;-68
2022/05/30 04:19:03;;;;;;;6.03;5.38;;;7.80;80.10;;;5.86;89.33;95404.72;4992553;28;20121;-68
2022/05/30 04:21:29;;;;;;;6.22;5.63;;;7.90;80.00;;;5.91;90.70;95402.44;4992774;28;20026;-68
2022/05/30 04:23:55;;;;;;;5.60;5.03;;;7.80;79.90;;;5.96;90.62;95394.88;4993250;28;20479;-68
2022/05/30 04:26:21;;;;;;;5.38;4.60;;;8.00;79.90;;;6.00;90.72;95405.78;5006479;28;20133;-68
2022/05/30 04:28:47;;;;;;;5.93;5.40;;;8.10;79.90;;;6.06;89.76;95399.84;5021752;28;20112;-68
2022/05/30 04:31:14;;;;;;;5.35;4.85;;;8.10;79.90;;;6.12;90.70;95405.19;5008586;28;20056;-68
2022/05/30 04:33:40;;;;;;;17.20;11.07;;;8.10;80.00;;;6.20;90.48;95408.69;5008679;28;20104;-68
2022/05/30 04:36:11;;;;;;;10.23;8.43;;;8.20;79.80;;;6.28;90.31;95409.41;5003512;28;20060;-68
2022/05/30 04:38:36;;;;;;;6.25;5.65;;;8.30;79.60;;;6.34;90.87;95416.56;4995717;28;20051;-68
2022/05/30 04:41:02;;;;;;;9.30;5.65;;;8.50;79.40;;;6.42;90.75;95418.25;4987438;28;20039;-68
2022/05/30 04:43:29;;;;;;;6.28;5.68;;;8.50;79.30;;;6.48;90.39;95417.53;4994010;28;20195;-68
2022/05/30 04:46:16;;;;;;;6.80;4.97;;;8.60;79.30;;;6.54;90.56;95419.41;4995684;28;20582;-69
2022/05/30 04:48:43;;;;;;;6.28;5.68;;;8.60;79.00;;;6.56;90.68;95430.50;4993813;28;20081;-69
2022/05/30 04:51:09;;;;;;;6.07;5.57;;;8.60;79.20;;;6.61;90.13;95430.78;4994266;28;20038;-69
2022/05/30 04:53:35;;;;;;;15.75;5.28;;;8.70;79.00;;;6.69;90.75;95430.69;4991886;28;20402;-69
2022/05/30 04:56:01;;;;;;;6.43;5.05;;;8.70;79.10;;;6.75;90.33;95423.91;5028018;28;20141;-69
2022/05/30 04:58:32;;;;;;;44.78;4.72;;;8.80;79.30;;;6.82;90.04;95424.00;4984258;28;20113;-69
2022/05/30 05:01:01;;;;;;;6.45;4.45;;;8.80;78.30;;;6.83;89.66;95423.03;4989342;28;20435;-70
2022/05/30 05:03:30;;;;;;;7.35;4.57;;;8.70;78.50;;;6.83;90.05;95425.63;5027160;28;20048;-69
2022/05/30 05:06:26;;;;;;;4.85;4.35;;;8.70;78.60;;;6.89;90.25;95427.50;4987274;28;20504;-69
2022/05/30 05:09:17;;;;;;;4.57;4.18;;;8.80;78.60;;;6.97;89.99;95437.84;5002600;28;20041;-69
2022/05/30 05:11:44;;;;;;;6.25;4.63;;;9.10;78.90;;;7.00;89.59;95433.06;5027995;28;20049;-69
2022/05/30 05:14:10;;;;;;;6.78;4.53;;;9.10;78.30;;;7.10;89.25;95442.44;4995821;28;20084;-68
2022/05/30 05:16:36;;;;;;;8.75;4.50;;;9.20;78.10;;;7.17;89.52;95438.91;4991637;28;20038;-68
2022/05/30 05:19:03;;;;;;;4.53;4.10;;;9.30;77.90;;;7.23;89.33;95438.16;4980985;28;20399;-68
2022/05/30 05:21:35;;;;;;;4.90;3.83;;;9.40;77.50;;;7.27;89.43;95436.81;5026497;28;20115;-68
2022/05/30 05:24:01;;;;;;;5.80;4.60;;;9.40;77.50;;;7.27;88.74;95442.06;5027827;28;20030;-68
2022/05/30 05:26:28;;;;;;;5.13;4.43;;;9.30;77.10;;;7.34;89.80;95440.31;4993873;28;20026;-68
2022/05/30 05:28:54;;;;;;;17.10;4.32;;;9.50;77.60;;;7.45;88.93;95439.00;5011134;28;20084;-69
2022/05/30 05:31:34;;;;;;;7.55;4.60;;;9.60;76.90;;;7.54;88.88;95439.72;5011260;28;20474;-68
2022/05/30 05:34:05;;;;;;;5.57;4.37;;;9.70;76.70;;;7.60;88.68;95442.38;4995318;28;20072;-69
2022/05/30 05:36:34;;;;;;;;;;;9.80;76.60;;;7.66;88.78;95444.25;5012477;28;20034;-68
2022/05/30 05:39:00;;;;;;;4.97;4.47;;;9.90;76.30;;;7.71;88.74;95445.53;5011542;28;20230;-68
2022/05/30 05:41:26;;;;;;;5.38;4.88;;;9.90;76.50;;;7.77;88.16;95440.34;5010116;28;20034;-68
2022/05/30 05:43:53;;;;;;;8.95;5.25;;;10.00;76.20;;;7.82;88.31;95442.41;5011247;28;20029;-69
2022/05/30 05:46:21;;;;;;;6.70;5.20;;;10.00;76.50;;;7.92;88.49;95442.88;5008354;28;20501;-68
2022/05/30 05:48:47;;;;;;;5.22;4.72;;;10.10;77.00;;;8.02;88.46;95447.81;5011042;28;20132;-68
2022/05/30 05:51:14;;;;;;;7.32;5.32;;;10.20;76.80;;;8.06;88.86;95444.63;5012165;28;20120;-68
2022/05/30 05:53:41;;;;;;;6.00;5.40;;;10.30;76.70;;;8.17;88.35;95438.06;4999040;28;20193;-68
2022/05/30 05:56:35;;;;;;;5.95;5.38;;;10.40;76.40;;;8.32;88.94;95438.75;4997196;28;20064;-68
2022/05/30 05:59:01;;;;;;;6.05;5.28;;;10.60;76.40;;;8.38;87.83;95438.06;4987480;28;20026;-69
2022/05/30 06:01:32;;;;;;;5.90;4.72;;;10.60;75.80;;;8.48;88.22;95432.47;4995095;28;20043;-68
2022/05/30 06:04:01;;;;;;;5.38;4.88;;;10.80;75.60;;;8.62;88.77;95435.97;5011786;28;20057;-68
2022/05/30 06:06:28;;;;;;;6.85;4.85;;;11.00;75.80;;;8.73;88.00;95430.19;4979477;28;20444;-68
2022/05/30 06:08:56;;;;;;;7.85;5.50;;;11.10;75.30;;;8.84;87.40;95429.66;5000274;28;20037;-68
2022/05/30 06:11:23;;;;;;;6.13;5.53;;;11.10;75.00;;;8.97;87.27;95424.44;5014510;28;20033;-69
2022/05/30 06:13:50;;;;;;;6.20;5.60;;;11.50;74.60;;;9.12;89.17;95430.38;5012481;28;20018;-69
2022/05/30 06:16:20;;;;;;;6.68;5.75;;;11.70;74.60;;;9.33;88.86;95426.00;5012337;28;20084;-68
2022/05/30 06:18:46;;;;;;;5.10;4.60;;;12.00;73.90;;;9.54;87.96;95432.94;5014227;28;20522;-68
2022/05/30 06:21:12;;;;;;;6.13;4.60;;;12.20;73.70;;;9.71;87.63;95429.72;5030991;28;20041;-69
2022/05/30 06:23:38;;;;;;;5.45;4.35;;;12.30;72.80;;;9.90;87.35;95422.06;4994533;28;20153;-68
2022/05/30 06:26:08;;;;;;;4.80;4.25;;;12.50;73.30;;;10.07;85.56;95423.28;5008982;28;20061;-68
2022/05/30 06:28:36;;;;;;;4.18;3.75;;;12.60;72.00;;;10.18;85.56;95427.94;5030458;28;20426;-68
2022/05/30 06:31:09;;;;;;;4.40;4.00;;;12.70;70.80;;;10.36;85.40;95412.38;4998598;28;20026;-68
2022/05/30 06:33:35;;;;;;;5.70;4.10;;;13.10;70.30;;;10.59;85.35;95421.66;5030645;28;20033;-69
2022/05/30 06:36:08;;;;;;;5.60;4.50;;;13.60;71.10;;;10.86;86.04;95427.66;5011835;28;20364;-69
2022/05/30 06:38:35;;;;;;;4.43;4.03;;;13.90;70.50;;;11.12;86.45;95421.53;4996508;28;20345;-69
2022/05/30 06:41:17;;;;;;;4.68;3.60;;;14.20;69.70;;;11.45;83.65;95416.09;5010991;28;20038;-68
2022/05/30 06:43:44;;;;;;;3.72;3.30;;;14.60;66.90;;;11.69;84.39;95420.59;5005561;28;20040;-69
2022/05/30 06:46:11;;;;;;;3.08;2.65;;;14.90;67.20;;;11.98;83.98;95426.31;5010087;28;20056;-69
2022/05/30 06:48:37;;;;;;;3.22;2.50;;;15.20;66.70;;;12.24;82.21;95429.59;4993546;28;20039;-68
2022/05/30 06:51:05;;;;;;;2.38;2.10;;;15.40;64.40;;;12.52;81.46;95431.78;5006694;28;20057;-68
2022/05/30 06:53:31;;;;;;;2.72;2.08;;;15.70;64.20;;;12.78;81.19;95428.06;5013190;28;20037;-69
2022/05/30 06:55:58;;;;;;;4.82;2.17;;;16.00;63.10;;;13.01;79.43;95422.13;4990941;28;20554;-68
2022/05/30 06:58:24;;;;;;;2.63;1.65;;;16.20;62.10;;;13.25;78.22;95431.03;4971690;28;20538;-69
2022/05/30 07:00:52;;;;;;;2.17;1.73;;;16.50;59.80;;;13.49;76.96;95427.47;4990058;28;20121;-68
2022/05/30 07:03:18;;;;;;;2.75;1.90;;;16.70;59.20;;;13.71;75.87;95426.97;4996779;28;20045;-68
2022/05/30 07:05:45;;;;;;;2.05;1.70;;;16.80;55.80;;;13.91;74.42;95426.69;5013936;28;20080;-68
2022/05/30 07:08:12;;;;;;;2.17;1.63;;;17.20;56.90;;;14.18;73.96;95427.09;4998005;28;20034;-68
2022/05/30 07:10:39;;;;;;;2.55;1.70;;;17.50;56.20;;;14.45;73.99;95430.16;5031091;28;20026;-68
2022/05/30 07:13:05;;;;;;;1.63;1.40;;;17.80;55.70;;;14.71;73.50;95424.41;4977706;28;20112;-68
2022/05/30 07:15:34;;;;;;;2.10;1.63;;;18.10;54.30;;;15.01;71.74;95421.63;5012499;28;20036;-68
2022/05/30 07:18:06;;;;;;;2.20;1.48;;;18.40;53.90;;;15.38;71.31;95427.38;5010733;28;20041;-68
2022/05/30 07:20:31;;;;;;;1.52;1.35;;;18.80;53.80;;;15.65;69.88;95430.34;4997648;28;20045;-68
2022/05/30 07:22:59;;;;;;;2.30;1.50;;;18.70;52.90;;;15.83;68.78;95427.47;4982570;28;20054;-69
2022/05/30 07:25:25;;;;;;;2.88;1.45;;;19.00;52.80;;;16.02;67.21;95430.72;4993383;28;20084;-68
2022/05/30 07:27:51;;;;;;;1.92;1.40;;;19.20;51.30;;;16.20;66.72;95429.72;5006165;28;20128;-68
2022/05/30 07:30:19;;;;;;;1.60;1.35;;;19.50;50.50;;;16.43;66.85;95423.44;4974605;28;20058;-68
2022/05/30 07:32:45;;;;;;;2.45;1.60;;;19.90;51.20;;;16.75;67.69;95424.50;5003360;28;20026;-69
2022/05/30 07:35:11;;;;;;;3.38;1.50;;;20.20;52.40;;;17.03;66.72;95422.75;4993595;28;20454;-69
2022/05/30 07:37:37;;;;;;;1.83;1.55;;;20.40;49.40;;;17.29;65.26;95426.53;5009584;28;20036;-68
2022/05/30 07:40:05;;;;;;;2.50;1.50;;;20.70;48.90;;;17.47;62.22;95426.25;5023622;28;20049;-69
2022/05/30 07:42:31;;;;;;;2.05;1.73;;;20.70;45.80;;;17.69;62.79;95419.06;4993442;28;20029;-69
2022/05/30 07:44:57;;;;;;;2.53;1.67;;;20.90;46.60;;;17.83;60.93;95421.31;4993405;28;20038;-69
2022/05/30 07:47:23;;;;;;;3.47;2.50;;;21.10;45.90;;;18.01;61.43;95429.75;5018881;28;20128;-68
2022/05/30 07:49:49;;;;;;;3.47;2.00;;;21.00;46.80;;;18.15;61.02;95424.84;4996395;28;20429;-68
2022/05/30 07:52:15;;;;;;;2.10;1.85;;;21.40;46.10;;;18.36;59.22;95428.50;4997041;28;20060;-68
2022/05/30 07:54:41;;;;;;;3.85;2.80;;;21.60;45.00;;;18.55;58.63;95423.56;4995232;28;20109;-68
2022/05/30 07:57:07;;;;;;;4.70;2.75;;;21.80;45.00;;;18.66;58.99;95427.94;5010717;28;20124;-68
2022/05/30 07:59:35;;;;;;;4.20;3.00;;;21.10;46.40;;;18.69;56.72;95424.75;4992275;28;20038;-69
2022/05/30 08:02:01;;;;;;;3.45;3.13;;;21.50;45.10;;;18.85;57.44;95418.47;5009940;28;20091;-69
2022/05/30 08:04:27;;;;;;;7.32;3.50;;;21.80;46.90;;;18.96;56.77;95428.13;5008635;28;20121;-68
2022/05/30 08:06:52;;;;;;;4.35;2.92;;;22.10;44.50;;;19.20;56.17;95427.72;4993139;28;20462;-69
2022/05/30 08:09:19;;;;;;;3.00;2.50;;;22.60;43.50;;;19.29;54.79;95426.19;5017531;28;20113;-69
2022/05/30 08:11:46;;;;;;;3.17;2.70;;;22.80;41.90;;;19.46;55.00;95424.13;4991564;28;20395;-69
2022/05/30 08:14:12;;;;;;;3.90;2.45;;;23.10;40.10;;;19.53;53.91;95422.03;5002005;28;20461;-69
2022/05/30 08:16:38;;;;;;;3.42;2.65;;;22.90;39.40;;;19.52;52.16;95423.06;4999429;28;20022;-69
2022/05/30 08:19:06;;;;;;;4.43;3.38;;;22.90;39.50;;;19.56;52.30;95429.53;5025956;28;20053;-69
2022/05/30 08:21:32;;;;;;;2.90;2.60;;;22.90;39.80;;;19.70;52.36;95426.38;4996239;28;20079;-68
2022/05/30 08:23:58;;;;;;;3.70;2.72;;;23.30;39.10;;;19.85;51.41;95437.06;5028159;28;20152;-68
2022/05/30 08:26:24;;;;;;;5.45;2.53;;;23.30;38.00;;;20.09;50.83;95438.19;5012730;28;20188;-68
2022/05/30 08:28:51;;;;;;;2.95;2.13;;;23.80;39.30;;;20.32;50.41;95441.41;4988967;28;20022;-68
2022/05/30 08:31:17;;;;;;;4.07;2.47;;;23.50;38.50;;;20.25;50.66;95438.22;5024964;28;20030;-68
2022/05/30 08:33:43;;;;;;;5.15;2.17;;;23.10;39.90;;;20.38;50.02;95435.03;5012278;28;20151;-68
2022/05/30 08:36:11;;;;;;;2.80;1.85;;;23.70;39.00;;;20.55;48.71;95440.91;4996294;28;20037;-68
2022/05/30 08:38:38;;;;;;;3.10;1.90;;;23.20;37.30;;;20.38;48.09;95445.72;5011905;28;20037;-68
2022/05/30 08:43:54;;;;;;;2.50;1.95;;;23.00;39.20;;;20.47;49.04;95444.13;5013410;28;20789;-68
2022/05/30 08:46:40;;;;;;;3.63;1.80;;;23.80;40.60;;;20.76;48.88;95442.53;4995207;28;20090;-68
2022/05/30 08:49:13;;;;;;;3.15;1.92;;;24.30;40.10;;;20.80;46.59;95438.22;4995790;28;20106;-68
2022/05/30 08:51:47;;;;;;;2.83;1.90;;;23.60;39.20;;;20.62;48.16;95449.50;5029643;28;20030;-68
2022/05/30 08:54:34;;;;;;;2.50;1.75;;;22.90;41.10;;;20.30;44.36;95443.56;5029916;28;20522;-68
2022/05/30 08:57:00;;;;;;;4.90;2.63;;;22.20;39.00;;;20.05;47.52;95444.31;5008591;28;20523;-68
2022/05/30 08:59:53;;;;;;;3.13;1.60;;;22.20;41.40;;;19.87;46.17;95445.59;5004986;28;20345;-68
2022/05/30 09:02:32;;;;;;;2.10;1.80;;;22.20;41.20;;;19.72;45.29;95443.72;5019644;28;20457;-68
2022/05/30 09:05:05;;;;;;;5.97;1.98;;;22.60;39.00;;;19.81;48.21;95458.16;5012688;28;20091;-68
2022/05/30 09:07:39;;;;;;;2.70;1.60;;;22.90;39.30;;;19.66;47.21;95455.41;5009668;28;20033;-68
2022/05/30 09:10:36;;;;;;;2.83;1.70;;;22.20;40.70;;;19.77;48.72;95462.41;5008236;28;20111;-69
2022/05/30 09:13:15;;;;;;;2.75;1.90;;;23.00;41.90;;;19.94;47.66;95459.53;5011957;28;20033;-69
2022/05/30 09:16:05;;;;;;;3.25;1.88;;;22.70;39.90;;;20.05;48.47;95457.66;5012126;28;20438;-68
2022/05/30 09:18:45;;;;;;;4.23;3.30;;;23.00;42.00;;;20.22;47.52;95452.09;5027655;28;20041;-69
2022/05/30 09:21:13;;;;;;;2.75;1.70;;;23.40;40.20;;;20.50;47.85;95456.97;5011038;28;20038;-69
2022/05/30 09:23:39;;;;;;;2.67;1.40;;;24.10;37.90;;;20.84;47.70;95437.72;5020041;28;20524;-69
2022/05/30 09:26:07;;;;;;;2.60;1.50;;;24.90;37.00;;;21.25;47.15;95444.59;5027605;28;20037;-68
2022/05/30 09:28:35;;;;;;;2.30;1.77;;;25.50;36.90;;;21.47;46.74;95440.78;5011519;28;20529;-68
2022/05/30 09:31:22;;;;;;;3.97;1.90;;;25.00;37.60;;;21.50;43.01;95437.56;5025094;28;20391;-68
2022/05/30 09:33:56;;;;;;;3.08;1.67;;;24.70;34.90;;;21.59;43.67;95438.59;5011204;28;20044;-68
2022/05/30 09:36:30;;;;;;;3.75;1.80;;;24.70;36.00;;;21.38;43.33;95432.53;4988722;28;20125;-68
2022/05/30 09:39:14;;;;;;;2.53;2.08;;;24.00;36.50;;;21.15;44.14;95444.59;4968257;28;20045;-68
2022/05/30 09:41:39;;;;;;;3.38;1.88;;;23.60;38.10;;;20.89;45.32;95437.69;4979517;28;20236;-68
2022/05/30 09:44:38;;;;;;;3.20;2.10;;;23.00;39.60;;;20.70;43.79;95440.94;4995998;28;20038;-68
2022/05/30 09:47:15;;;;;;;1.67;1.50;;;23.10;38.70;;;20.55;43.86;95437.44;4995191;28;20037;-69
2022/05/30 09:49:46;;;;;;;2.05;1.50;;;22.90;39.40;;;20.55;44.18;95440.91;5002711;28;20083;-69
2022/05/30 09:52:32;;;;;;;3.03;1.77;;;23.80;36.10;;;20.69;44.52;95431.31;5027780;28;20510;-68
2022/05/30 09:55:01;;;;;;;3.22;1.60;;;23.70;37.80;;;20.94;45.66;95440.38;5028786;28;20042;-69
2022/05/30 09:57:44;;;;;;;1.88;1.33;;;24.70;39.00;;;21.26;44.65;95430.13;5010823;28;20335;-68
2022/05/30 10:00:16;;;;;;;2.95;1.65;;;24.80;37.20;;;21.37;45.28;95429.06;5010865;28;20033;-68
2022/05/30 10:02:45;;;;;;;3.40;2.08;;;25.10;36.50;;;21.52;45.77;95432.75;5028683;28;20036;-69
2022/05/30 10:05:26;;;;;;;4.05;1.85;;;25.00;36.10;;;21.80;41.74;95434.75;5011070;28;20033;-69
2022/05/30 10:07:56;;;;;;;1.77;1.08;;;26.10;32.60;;;22.28;42.49;95435.03;5010851;28;20053;-68
2022/05/30 10:10:40;;;;;;;2.33;1.40;;;26.20;33.40;;;22.64;41.66;95427.53;5011362;28;20060;-69
2022/05/30 10:13:08;;;;;;;2.45;1.38;;;26.80;32.80;;;22.87;42.73;95431.38;5008119;28;20041;-68
2022/05/30 10:15:42;;;;;;;2.17;1.30;;;26.30;34.40;;;22.72;40.65;95432.28;4994125;28;20233;-67
2022/05/30 10:18:17;;;;;;;1.55;1.00;;;25.40;34.40;;;22.42;41.17;95433.34;5011008;28;20033;-67
2022/05/30 10:21:25;;;;;;;3.03;1.48;;;24.60;36.10;;;22.11;40.82;95426.56;5025624;28;20096;-68
2022/05/30 10:31:04;;;;;;;1.52;1.10;;;27.50;29.80;;;24.07;40.43;95421.41;5024541;28;20075;-68
2022/05/30 10:34:09;;;;;;;1.70;1.20;;;28.90;30.70;;;24.97;37.63;95410.28;5026765;28;20116;-68
2022/05/30 10:37:25;;;;;;;2.20;1.30;;;30.00;28.60;;;25.68;35.68;95416.25;5027457;28;20116;-68
2022/05/30 10:40:17;;;;;;;4.00;1.40;;;30.70;26.10;;;26.36;34.86;95407.22;5013346;28;20566;-68
2022/05/30 10:43:10;;;;;;;1.90;0.90;;;31.50;25.60;;;27.10;33.63;95406.75;5013969;28;20037;-69
2022/05/30 10:46:36;;;;;;;2.90;1.35;;;32.20;25.00;;;27.44;32.50;95415.00;5007269;28;20041;-68
2022/05/30 10:49:14;;;;;;;2.83;1.10;;;32.00;24.10;;;27.87;32.18;95414.38;5029373;28;20033;-69
2022/05/30 10:51:54;;;;;;;1.80;0.80;;;32.20;23.30;;;27.83;30.09;95407.97;4997324;28;20111;-69
2022/05/30 10:54:40;;;;;;;1.65;1.15;;;30.80;22.80;;;27.21;29.66;95405.38;5012035;28;20037;-68
2022/05/30 10:57:45;;;;;;;1.73;1.10;;;29.50;24.10;;;26.32;31.59;95413.50;5011431;28;20057;-68
2022/05/30 11:00:20;;;;;;;1.88;1.13;;;28.00;26.70;;;26.36;32.95;95407.22;5026266;28;20053;-68
2022/05/30 11:03:03;;;;;;;1.85;1.10;;;29.40;27.60;;;26.86;31.06;95413.28;4983643;28;20052;-69